sensor_id;sensor_type;location;lat;lon;timestamp;P1;durP1;ratioP1;P2;durP2;ratioP2
53401;SDS011;39295;45.534;20.034;2023-03-11T00:00:58;6.60;;;4.78;;
53401;SDS011;39295;45.534;20.034;2023-03-11T00:03:24;6.25;;;4.70;;
53401;SDS011;39295;45.534;20.034;2023-03-11T00:08:56;6.05;;;4.32;;
53401;SDS011;39295;45.534;20.034;2023-03-11T00:11:22;5.38;;;3.80;;
53401;SDS011;39295;45.534;20.034;2023-03-11T00:13:49;6.60;;;4.18;;
53401;SDS011;39295;45.534;20.034;2023-03-11T00:16:15;6.68;;;4.50;;
53401;SDS011;39295;45.534;20.034;2023-03-11T00:18:41;6.05;;;4.32;;
53401;SDS011;39295;45.534;20.034;2023-03-11T00:21:12;6.10;;;4.03;;
53401;SDS011;39295;45.534;20.034;2023-03-11T00:23:39;7.55;;;4.47;;
53401;SDS011;39295;45.534;20.034;2023-03-11T00:26:05;6.30;;;4.53;;
53401;SDS011;39295;45.534;20.034;2023-03-11T00:28:31;4.95;;;4.03;;
53401;SDS011;39295;45.534;20.034;2023-03-11T00:30:58;5.40;;;4.00;;
53401;SDS011;39295;45.534;20.034;2023-03-11T00:33:24;5.82;;;4.20;;
53401;SDS011;39295;45.534;20.034;2023-03-11T00:38:56;6.20;;;3.83;;
53401;SDS011;39295;45.534;20.034;2023-03-11T00:41:22;9.65;;;4.78;;
53401;SDS011;39295;45.534;20.034;2023-03-11T00:43:48;6.82;;;4.15;;
53401;SDS011;39295;45.534;20.034;2023-03-11T00:46:14;5.07;;;3.63;;
53401;SDS011;39295;45.534;20.034;2023-03-11T00:48:41;6.45;;;4.20;;
53401;SDS011;39295;45.534;20.034;2023-03-11T00:51:08;7.40;;;4.50;;
53401;SDS011;39295;45.534;20.034;2023-03-11T00:53:36;6.32;;;4.47;;
53401;SDS011;39295;45.534;20.034;2023-03-11T00:56:06;6.93;;;4.50;;
53401;SDS011;39295;45.534;20.034;2023-03-11T00:58:32;6.50;;;4.25;;
53401;SDS011;39295;45.534;20.034;2023-03-11T01:01:00;6.78;;;4.65;;
53401;SDS011;39295;45.534;20.034;2023-03-11T01:03:27;7.78;;;5.10;;
53401;SDS011;39295;45.534;20.034;2023-03-11T01:05:53;8.13;;;5.53;;
53401;SDS011;39295;45.534;20.034;2023-03-11T01:08:19;7.93;;;6.30;;
53401;SDS011;39295;45.534;20.034;2023-03-11T01:10:45;8.70;;;5.60;;
53401;SDS011;39295;45.534;20.034;2023-03-11T01:13:11;7.07;;;4.78;;
53401;SDS011;39295;45.534;20.034;2023-03-11T01:15:37;7.97;;;5.53;;
53401;SDS011;39295;45.534;20.034;2023-03-11T01:18:03;8.35;;;6.13;;
53401;SDS011;39295;45.534;20.034;2023-03-11T01:20:29;9.77;;;6.63;;
53401;SDS011;39295;45.534;20.034;2023-03-11T01:22:56;7.15;;;5.07;;
53401;SDS011;39295;45.534;20.034;2023-03-11T01:25:22;6.20;;;4.68;;
53401;SDS011;39295;45.534;20.034;2023-03-11T01:27:49;5.20;;;4.30;;
53401;SDS011;39295;45.534;20.034;2023-03-11T01:30:16;10.07;;;5.25;;
53401;SDS011;39295;45.534;20.034;2023-03-11T01:32:43;6.93;;;4.97;;
53401;SDS011;39295;45.534;20.034;2023-03-11T01:35:12;5.63;;;4.50;;
53401;SDS011;39295;45.534;20.034;2023-03-11T01:37:39;21.58;;;5.20;;
53401;SDS011;39295;45.534;20.034;2023-03-11T01:40:06;7.93;;;4.88;;
53401;SDS011;39295;45.534;20.034;2023-03-11T01:42:32;7.43;;;4.85;;
53401;SDS011;39295;45.534;20.034;2023-03-11T01:44:58;7.10;;;5.57;;
53401;SDS011;39295;45.534;20.034;2023-03-11T01:47:32;7.68;;;5.32;;
53401;SDS011;39295;45.534;20.034;2023-03-11T01:53:17;9.50;;;4.72;;
53401;SDS011;39295;45.534;20.034;2023-03-11T01:55:43;6.17;;;5.37;;
53401;SDS011;39295;45.534;20.034;2023-03-11T01:58:11;9.38;;;5.80;;
53401;SDS011;39295;45.534;20.034;2023-03-11T02:00:39;7.05;;;4.65;;
53401;SDS011;39295;45.534;20.034;2023-03-11T02:03:10;7.55;;;4.45;;
53401;SDS011;39295;45.534;20.034;2023-03-11T02:05:39;7.70;;;4.50;;
53401;SDS011;39295;45.534;20.034;2023-03-11T02:08:05;5.93;;;4.00;;
53401;SDS011;39295;45.534;20.034;2023-03-11T02:10:31;5.68;;;4.03;;
53401;SDS011;39295;45.534;20.034;2023-03-11T02:12:58;6.45;;;4.45;;
53401;SDS011;39295;45.534;20.034;2023-03-11T02:15:24;7.65;;;5.13;;
53401;SDS011;39295;45.534;20.034;2023-03-11T02:17:50;6.55;;;5.38;;
53401;SDS011;39295;45.534;20.034;2023-03-11T02:26:39;7.93;;;5.05;;
53401;SDS011;39295;45.534;20.034;2023-03-11T02:29:06;7.43;;;4.75;;
53401;SDS011;39295;45.534;20.034;2023-03-11T02:31:35;8.02;;;4.57;;
53401;SDS011;39295;45.534;20.034;2023-03-11T02:34:02;6.00;;;4.10;;
53401;SDS011;39295;45.534;20.034;2023-03-11T02:42:01;6.95;;;5.03;;
53401;SDS011;39295;45.534;20.034;2023-03-11T02:44:29;7.68;;;5.18;;
53401;SDS011;39295;45.534;20.034;2023-03-11T02:46:55;8.30;;;5.03;;
53401;SDS011;39295;45.534;20.034;2023-03-11T02:49:21;6.90;;;5.18;;
53401;SDS011;39295;45.534;20.034;2023-03-11T02:51:48;6.70;;;5.03;;
53401;SDS011;39295;45.534;20.034;2023-03-11T02:54:14;6.18;;;4.93;;
53401;SDS011;39295;45.534;20.034;2023-03-11T02:56:40;6.10;;;4.85;;
53401;SDS011;39295;45.534;20.034;2023-03-11T02:59:06;8.63;;;4.57;;
53401;SDS011;39295;45.534;20.034;2023-03-11T03:01:32;6.07;;;5.00;;
53401;SDS011;39295;45.534;20.034;2023-03-11T03:03:58;6.22;;;4.90;;
53401;SDS011;39295;45.534;20.034;2023-03-11T03:09:22;9.50;;;6.45;;
53401;SDS011;39295;45.534;20.034;2023-03-11T03:11:48;8.32;;;5.78;;
53401;SDS011;39295;45.534;20.034;2023-03-11T03:14:14;9.32;;;5.60;;
53401;SDS011;39295;45.534;20.034;2023-03-11T03:16:40;8.30;;;5.95;;
53401;SDS011;39295;45.534;20.034;2023-03-11T03:19:06;8.93;;;5.13;;
53401;SDS011;39295;45.534;20.034;2023-03-11T03:21:33;7.43;;;4.90;;
53401;SDS011;39295;45.534;20.034;2023-03-11T03:23:59;8.40;;;5.30;;
53401;SDS011;39295;45.534;20.034;2023-03-11T03:26:25;7.53;;;5.20;;
53401;SDS011;39295;45.534;20.034;2023-03-11T03:28:51;10.38;;;6.80;;
53401;SDS011;39295;45.534;20.034;2023-03-11T03:31:17;8.88;;;6.25;;
53401;SDS011;39295;45.534;20.034;2023-03-11T03:33:44;11.48;;;6.43;;
53401;SDS011;39295;45.534;20.034;2023-03-11T03:36:11;10.82;;;6.57;;
53401;SDS011;39295;45.534;20.034;2023-03-11T03:38:37;9.60;;;6.53;;
53401;SDS011;39295;45.534;20.034;2023-03-11T03:41:03;7.53;;;6.13;;
53401;SDS011;39295;45.534;20.034;2023-03-11T03:43:29;7.78;;;6.38;;
53401;SDS011;39295;45.534;20.034;2023-03-11T03:45:56;7.75;;;5.25;;
53401;SDS011;39295;45.534;20.034;2023-03-11T03:48:23;7.13;;;5.28;;
53401;SDS011;39295;45.534;20.034;2023-03-11T03:50:49;7.35;;;5.32;;
53401;SDS011;39295;45.534;20.034;2023-03-11T03:53:15;8.00;;;5.72;;
53401;SDS011;39295;45.534;20.034;2023-03-11T03:55:42;13.93;;;6.25;;
53401;SDS011;39295;45.534;20.034;2023-03-11T03:58:08;9.02;;;6.13;;
53401;SDS011;39295;45.534;20.034;2023-03-11T04:00:34;8.40;;;6.18;;
53401;SDS011;39295;45.534;20.034;2023-03-11T04:03:00;8.90;;;5.32;;
53401;SDS011;39295;45.534;20.034;2023-03-11T04:08:29;8.02;;;5.38;;
53401;SDS011;39295;45.534;20.034;2023-03-11T04:10:56;10.60;;;5.60;;
53401;SDS011;39295;45.534;20.034;2023-03-11T04:13:22;9.70;;;5.97;;
53401;SDS011;39295;45.534;20.034;2023-03-11T04:15:48;7.03;;;5.32;;
53401;SDS011;39295;45.534;20.034;2023-03-11T04:18:14;11.23;;;6.20;;
53401;SDS011;39295;45.534;20.034;2023-03-11T04:20:59;18.95;;;10.52;;
53401;SDS011;39295;45.534;20.034;2023-03-11T04:23:29;32.60;;;16.25;;
53401;SDS011;39295;45.534;20.034;2023-03-11T04:25:55;28.23;;;15.95;;
53401;SDS011;39295;45.534;20.034;2023-03-11T04:28:21;19.58;;;12.82;;
53401;SDS011;39295;45.534;20.034;2023-03-11T04:30:47;30.85;;;16.42;;
53401;SDS011;39295;45.534;20.034;2023-03-11T04:33:13;93.82;;;43.78;;
53401;SDS011;39295;45.534;20.034;2023-03-11T04:35:39;25.25;;;12.70;;
53401;SDS011;39295;45.534;20.034;2023-03-11T04:38:05;16.95;;;9.80;;
53401;SDS011;39295;45.534;20.034;2023-03-11T04:40:31;11.98;;;7.88;;
53401;SDS011;39295;45.534;20.034;2023-03-11T04:42:57;11.85;;;7.80;;
53401;SDS011;39295;45.534;20.034;2023-03-11T04:45:23;9.70;;;5.68;;
53401;SDS011;39295;45.534;20.034;2023-03-11T04:47:50;6.85;;;5.10;;
53401;SDS011;39295;45.534;20.034;2023-03-11T04:50:16;5.65;;;4.18;;
53401;SDS011;39295;45.534;20.034;2023-03-11T04:52:43;8.13;;;4.82;;
53401;SDS011;39295;45.534;20.034;2023-03-11T04:55:09;8.52;;;6.00;;
53401;SDS011;39295;45.534;20.034;2023-03-11T04:57:35;14.48;;;9.70;;
53401;SDS011;39295;45.534;20.034;2023-03-11T05:00:02;82.78;;;55.13;;
53401;SDS011;39295;45.534;20.034;2023-03-11T05:02:32;84.85;;;59.55;;
53401;SDS011;39295;45.534;20.034;2023-03-11T05:04:58;58.50;;;38.08;;
53401;SDS011;39295;45.534;20.034;2023-03-11T05:07:24;30.00;;;20.05;;
53401;SDS011;39295;45.534;20.034;2023-03-11T05:09:51;23.23;;;15.35;;
53401;SDS011;39295;45.534;20.034;2023-03-11T05:12:17;27.40;;;14.05;;
53401;SDS011;39295;45.534;20.034;2023-03-11T05:14:43;26.33;;;13.85;;
53401;SDS011;39295;45.534;20.034;2023-03-11T05:17:09;26.20;;;13.20;;
53401;SDS011;39295;45.534;20.034;2023-03-11T05:19:37;35.03;;;14.10;;
53401;SDS011;39295;45.534;20.034;2023-03-11T05:22:22;34.42;;;13.88;;
53401;SDS011;39295;45.534;20.034;2023-03-11T05:24:48;24.05;;;16.00;;
53401;SDS011;39295;45.534;20.034;2023-03-11T05:27:14;35.83;;;19.17;;
53401;SDS011;39295;45.534;20.034;2023-03-11T05:29:42;38.03;;;21.55;;
53401;SDS011;39295;45.534;20.034;2023-03-11T05:32:09;41.30;;;23.77;;
53401;SDS011;39295;45.534;20.034;2023-03-11T05:34:35;45.20;;;26.95;;
53401;SDS011;39295;45.534;20.034;2023-03-11T05:40:05;38.70;;;23.27;;
53401;SDS011;39295;45.534;20.034;2023-03-11T05:42:32;34.30;;;18.50;;
53401;SDS011;39295;45.534;20.034;2023-03-11T05:44:59;26.67;;;15.90;;
53401;SDS011;39295;45.534;20.034;2023-03-11T05:47:25;21.52;;;13.63;;
53401;SDS011;39295;45.534;20.034;2023-03-11T05:49:51;21.33;;;12.73;;
53401;SDS011;39295;45.534;20.034;2023-03-11T05:55:20;17.65;;;10.45;;
53401;SDS011;39295;45.534;20.034;2023-03-11T05:57:47;15.82;;;10.77;;
53401;SDS011;39295;45.534;20.034;2023-03-11T06:00:15;19.95;;;10.95;;
53401;SDS011;39295;45.534;20.034;2023-03-11T06:02:42;16.35;;;10.63;;
53401;SDS011;39295;45.534;20.034;2023-03-11T06:05:09;18.95;;;11.45;;
53401;SDS011;39295;45.534;20.034;2023-03-11T06:10:39;17.65;;;11.43;;
53401;SDS011;39295;45.534;20.034;2023-03-11T06:13:05;15.85;;;7.95;;
53401;SDS011;39295;45.534;20.034;2023-03-11T06:15:32;8.48;;;4.90;;
53401;SDS011;39295;45.534;20.034;2023-03-11T06:17:58;5.25;;;3.08;;
53401;SDS011;39295;45.534;20.034;2023-03-11T06:20:24;7.57;;;3.28;;
53401;SDS011;39295;45.534;20.034;2023-03-11T06:26:09;4.63;;;1.95;;
53401;SDS011;39295;45.534;20.034;2023-03-11T06:28:37;3.28;;;1.70;;
53401;SDS011;39295;45.534;20.034;2023-03-11T06:31:07;2.92;;;1.83;;
53401;SDS011;39295;45.534;20.034;2023-03-11T06:33:33;5.65;;;2.05;;
53401;SDS011;39295;45.534;20.034;2023-03-11T06:38:44;5.63;;;2.13;;
53401;SDS011;39295;45.534;20.034;2023-03-11T06:41:14;2.85;;;1.27;;
53401;SDS011;39295;45.534;20.034;2023-03-11T06:43:41;2.63;;;1.42;;
53401;SDS011;39295;45.534;20.034;2023-03-11T06:46:08;4.88;;;1.52;;
53401;SDS011;39295;45.534;20.034;2023-03-11T06:48:34;5.88;;;2.90;;
53401;SDS011;39295;45.534;20.034;2023-03-11T06:51:05;8.73;;;4.22;;
53401;SDS011;39295;45.534;20.034;2023-03-11T06:53:31;19.30;;;7.83;;
53401;SDS011;39295;45.534;20.034;2023-03-11T06:56:02;9.63;;;5.55;;
53401;SDS011;39295;45.534;20.034;2023-03-11T06:58:29;8.60;;;4.43;;
53401;SDS011;39295;45.534;20.034;2023-03-11T07:00:59;5.68;;;3.15;;
53401;SDS011;39295;45.534;20.034;2023-03-11T07:03:26;5.35;;;3.00;;
53401;SDS011;39295;45.534;20.034;2023-03-11T07:05:52;5.93;;;2.85;;
53401;SDS011;39295;45.534;20.034;2023-03-11T07:11:41;9.07;;;4.53;;
53401;SDS011;39295;45.534;20.034;2023-03-11T07:14:07;4.20;;;2.00;;
53401;SDS011;39295;45.534;20.034;2023-03-11T07:16:33;5.80;;;2.60;;
53401;SDS011;39295;45.534;20.034;2023-03-11T07:18:59;5.85;;;2.25;;
53401;SDS011;39295;45.534;20.034;2023-03-11T07:27:34;4.85;;;2.08;;
53401;SDS011;39295;45.534;20.034;2023-03-11T07:30:01;4.85;;;1.85;;
53401;SDS011;39295;45.534;20.034;2023-03-11T07:32:27;7.80;;;1.63;;
53401;SDS011;39295;45.534;20.034;2023-03-11T07:34:53;11.43;;;1.75;;
53401;SDS011;39295;45.534;20.034;2023-03-11T07:37:19;4.68;;;2.17;;
53401;SDS011;39295;45.534;20.034;2023-03-11T07:39:45;10.38;;;2.30;;
53401;SDS011;39295;45.534;20.034;2023-03-11T07:42:11;4.93;;;1.50;;
53401;SDS011;39295;45.534;20.034;2023-03-11T07:44:37;7.97;;;2.00;;
53401;SDS011;39295;45.534;20.034;2023-03-11T07:47:04;5.18;;;1.52;;
53401;SDS011;39295;45.534;20.034;2023-03-11T07:49:30;10.55;;;2.20;;
53401;SDS011;39295;45.534;20.034;2023-03-11T07:55:00;6.95;;;1.80;;
53401;SDS011;39295;45.534;20.034;2023-03-11T07:57:26;6.28;;;1.83;;
53401;SDS011;39295;45.534;20.034;2023-03-11T07:59:52;9.32;;;3.00;;
53401;SDS011;39295;45.534;20.034;2023-03-11T08:02:18;9.68;;;2.55;;
53401;SDS011;39295;45.534;20.034;2023-03-11T08:04:44;6.90;;;2.40;;
53401;SDS011;39295;45.534;20.034;2023-03-11T08:07:10;15.35;;;2.65;;
53401;SDS011;39295;45.534;20.034;2023-03-11T08:09:36;49.03;;;15.65;;
53401;SDS011;39295;45.534;20.034;2023-03-11T08:12:02;62.83;;;26.75;;
53401;SDS011;39295;45.534;20.034;2023-03-11T08:14:28;73.43;;;30.67;;
53401;SDS011;39295;45.534;20.034;2023-03-11T08:16:54;32.95;;;10.32;;
53401;SDS011;39295;45.534;20.034;2023-03-11T08:19:20;28.70;;;7.68;;
53401;SDS011;39295;45.534;20.034;2023-03-11T08:21:46;64.22;;;20.08;;
53401;SDS011;39295;45.534;20.034;2023-03-11T08:24:13;28.13;;;7.20;;
53401;SDS011;39295;45.534;20.034;2023-03-11T08:26:39;18.15;;;3.90;;
53401;SDS011;39295;45.534;20.034;2023-03-11T08:29:05;30.50;;;7.80;;
53401;SDS011;39295;45.534;20.034;2023-03-11T08:31:32;27.45;;;5.78;;
53401;SDS011;39295;45.534;20.034;2023-03-11T08:34:03;19.40;;;4.57;;
53401;SDS011;39295;45.534;20.034;2023-03-11T08:36:30;22.88;;;3.60;;
53401;SDS011;39295;45.534;20.034;2023-03-11T08:38:56;37.13;;;8.27;;
53401;SDS011;39295;45.534;20.034;2023-03-11T08:41:22;38.83;;;9.45;;
53401;SDS011;39295;45.534;20.034;2023-03-11T08:43:48;31.08;;;7.40;;
53401;SDS011;39295;45.534;20.034;2023-03-11T08:48:51;29.27;;;7.85;;
53401;SDS011;39295;45.534;20.034;2023-03-11T08:51:17;25.80;;;7.72;;
53401;SDS011;39295;45.534;20.034;2023-03-11T08:53:45;50.33;;;15.02;;
53401;SDS011;39295;45.534;20.034;2023-03-11T08:56:11;25.85;;;9.10;;
53401;SDS011;39295;45.534;20.034;2023-03-11T08:58:38;27.95;;;9.45;;
53401;SDS011;39295;45.534;20.034;2023-03-11T09:01:04;25.48;;;5.03;;
53401;SDS011;39295;45.534;20.034;2023-03-11T09:03:31;35.92;;;13.02;;
53401;SDS011;39295;45.534;20.034;2023-03-11T09:05:58;49.83;;;15.93;;
53401;SDS011;39295;45.534;20.034;2023-03-11T09:08:25;12.30;;;4.38;;
53401;SDS011;39295;45.534;20.034;2023-03-11T09:10:51;24.73;;;8.35;;
53401;SDS011;39295;45.534;20.034;2023-03-11T09:13:17;21.80;;;6.03;;
53401;SDS011;39295;45.534;20.034;2023-03-11T09:15:44;30.88;;;12.25;;
53401;SDS011;39295;45.534;20.034;2023-03-11T09:18:11;15.82;;;5.22;;
53401;SDS011;39295;45.534;20.034;2023-03-11T09:20:37;16.98;;;5.45;;
53401;SDS011;39295;45.534;20.034;2023-03-11T09:23:03;16.48;;;5.05;;
53401;SDS011;39295;45.534;20.034;2023-03-11T09:25:29;13.80;;;4.90;;
53401;SDS011;39295;45.534;20.034;2023-03-11T09:27:55;12.18;;;3.22;;
53401;SDS011;39295;45.534;20.034;2023-03-11T09:30:22;22.70;;;9.63;;
53401;SDS011;39295;45.534;20.034;2023-03-11T09:32:48;12.38;;;5.93;;
53401;SDS011;39295;45.534;20.034;2023-03-11T09:35:14;13.27;;;6.07;;
53401;SDS011;39295;45.534;20.034;2023-03-11T09:37:40;19.25;;;8.18;;
53401;SDS011;39295;45.534;20.034;2023-03-11T09:40:06;19.67;;;7.75;;
53401;SDS011;39295;45.534;20.034;2023-03-11T09:42:40;16.08;;;6.32;;
53401;SDS011;39295;45.534;20.034;2023-03-11T09:50:28;18.80;;;8.93;;
53401;SDS011;39295;45.534;20.034;2023-03-11T09:58:20;21.77;;;10.88;;
53401;SDS011;39295;45.534;20.034;2023-03-11T10:00:48;35.77;;;15.10;;
53401;SDS011;39295;45.534;20.034;2023-03-11T10:08:22;35.05;;;13.00;;
53401;SDS011;39295;45.534;20.034;2023-03-11T10:10:52;22.02;;;9.15;;
53401;SDS011;39295;45.534;20.034;2023-03-11T10:13:44;18.17;;;7.05;;
53401;SDS011;39295;45.534;20.034;2023-03-11T10:18:55;22.45;;;6.93;;
53401;SDS011;39295;45.534;20.034;2023-03-11T10:21:38;14.25;;;5.82;;
53401;SDS011;39295;45.534;20.034;2023-03-11T10:26:52;41.30;;;15.70;;
53401;SDS011;39295;45.534;20.034;2023-03-11T10:31:52;12.77;;;4.13;;
53401;SDS011;39295;45.534;20.034;2023-03-11T10:39:50;55.03;;;20.00;;
53401;SDS011;39295;45.534;20.034;2023-03-11T10:42:20;44.30;;;17.67;;
53401;SDS011;39295;45.534;20.034;2023-03-11T10:44:47;40.42;;;14.55;;
53401;SDS011;39295;45.534;20.034;2023-03-11T10:47:17;36.42;;;13.60;;
53401;SDS011;39295;45.534;20.034;2023-03-11T10:49:44;24.65;;;9.43;;
53401;SDS011;39295;45.534;20.034;2023-03-11T10:52:10;54.72;;;19.52;;
53401;SDS011;39295;45.534;20.034;2023-03-11T10:54:38;143.93;;;50.90;;
53401;SDS011;39295;45.534;20.034;2023-03-11T10:57:17;41.03;;;16.83;;
53401;SDS011;39295;45.534;20.034;2023-03-11T10:59:45;47.88;;;19.15;;
53401;SDS011;39295;45.534;20.034;2023-03-11T11:04:46;257.55;;;88.30;;
53401;SDS011;39295;45.534;20.034;2023-03-11T11:15:22;61.90;;;23.65;;
53401;SDS011;39295;45.534;20.034;2023-03-11T11:17:48;88.80;;;33.47;;
53401;SDS011;39295;45.534;20.034;2023-03-11T11:20:18;74.05;;;29.88;;
53401;SDS011;39295;45.534;20.034;2023-03-11T11:22:48;29.25;;;14.27;;
53401;SDS011;39295;45.534;20.034;2023-03-11T11:25:38;65.43;;;31.42;;
53401;SDS011;39295;45.534;20.034;2023-03-11T11:28:16;16.40;;;8.40;;
53401;SDS011;39295;45.534;20.034;2023-03-11T11:33:21;12.52;;;5.25;;
53401;SDS011;39295;45.534;20.034;2023-03-11T11:35:49;9.32;;;3.42;;
53401;SDS011;39295;45.534;20.034;2023-03-11T11:41:34;8.73;;;3.72;;
53401;SDS011;39295;45.534;20.034;2023-03-11T11:44:04;8.90;;;4.10;;
53401;SDS011;39295;45.534;20.034;2023-03-11T11:49:14;5.95;;;3.80;;
53401;SDS011;39295;45.534;20.034;2023-03-11T11:52:05;6.57;;;4.15;;
53401;SDS011;39295;45.534;20.034;2023-03-11T11:54:37;8.05;;;4.60;;
53401;SDS011;39295;45.534;20.034;2023-03-11T11:57:09;7.28;;;4.18;;
53401;SDS011;39295;45.534;20.034;2023-03-11T11:59:36;9.98;;;4.22;;
53401;SDS011;39295;45.534;20.034;2023-03-11T12:04:37;9.52;;;4.00;;
53401;SDS011;39295;45.534;20.034;2023-03-11T12:09:53;12.88;;;6.13;;
53401;SDS011;39295;45.534;20.034;2023-03-11T12:17:31;14.75;;;7.50;;
53401;SDS011;39295;45.534;20.034;2023-03-11T12:20:14;18.42;;;8.25;;
53401;SDS011;39295;45.534;20.034;2023-03-11T12:28:57;15.10;;;7.07;;
53401;SDS011;39295;45.534;20.034;2023-03-11T12:31:24;21.23;;;10.52;;
53401;SDS011;39295;45.534;20.034;2023-03-11T12:42:16;20.20;;;9.30;;
53401;SDS011;39295;45.534;20.034;2023-03-11T12:44:42;8.55;;;4.35;;
53401;SDS011;39295;45.534;20.034;2023-03-11T12:49:48;8.80;;;3.67;;
53401;SDS011;39295;45.534;20.034;2023-03-11T13:16:40;11.73;;;4.28;;
53401;SDS011;39295;45.534;20.034;2023-03-11T13:21:55;34.42;;;13.18;;
53401;SDS011;39295;45.534;20.034;2023-03-11T13:43:42;7.18;;;2.97;;
53401;SDS011;39295;45.534;20.034;2023-03-11T13:46:22;5.47;;;3.10;;
53401;SDS011;39295;45.534;20.034;2023-03-11T13:48:50;2.92;;;1.90;;
53401;SDS011;39295;45.534;20.034;2023-03-11T13:51:20;12.10;;;5.10;;
53401;SDS011;39295;45.534;20.034;2023-03-11T13:53:53;15.77;;;6.10;;
53401;SDS011;39295;45.534;20.034;2023-03-11T13:56:22;6.95;;;3.20;;
53401;SDS011;39295;45.534;20.034;2023-03-11T13:58:50;7.30;;;1.80;;
53401;SDS011;39295;45.534;20.034;2023-03-11T14:01:16;6.40;;;2.20;;
53401;SDS011;39295;45.534;20.034;2023-03-11T14:03:43;15.38;;;5.00;;
53401;SDS011;39295;45.534;20.034;2023-03-11T14:06:19;11.68;;;1.85;;
53401;SDS011;39295;45.534;20.034;2023-03-11T14:11:48;14.25;;;5.47;;
53401;SDS011;39295;45.534;20.034;2023-03-11T14:14:29;11.07;;;4.05;;
53401;SDS011;39295;45.534;20.034;2023-03-11T14:16:55;20.13;;;6.80;;
53401;SDS011;39295;45.534;20.034;2023-03-11T14:19:22;13.57;;;4.40;;
53401;SDS011;39295;45.534;20.034;2023-03-11T14:21:49;16.63;;;7.55;;
53401;SDS011;39295;45.534;20.034;2023-03-11T14:24:17;16.40;;;7.18;;
53401;SDS011;39295;45.534;20.034;2023-03-11T14:26:44;18.55;;;4.97;;
53401;SDS011;39295;45.534;20.034;2023-03-11T14:29:19;11.70;;;3.45;;
53401;SDS011;39295;45.534;20.034;2023-03-11T14:31:45;9.52;;;4.47;;
53401;SDS011;39295;45.534;20.034;2023-03-11T14:34:13;16.77;;;4.30;;
53401;SDS011;39295;45.534;20.034;2023-03-11T14:45:01;8.20;;;2.30;;
53401;SDS011;39295;45.534;20.034;2023-03-11T14:50:02;11.68;;;3.15;;
53401;SDS011;39295;45.534;20.034;2023-03-11T14:55:20;6.43;;;2.53;;
53401;SDS011;39295;45.534;20.034;2023-03-11T15:00:17;8.13;;;2.78;;
53401;SDS011;39295;45.534;20.034;2023-03-11T15:02:48;10.90;;;2.17;;
53401;SDS011;39295;45.534;20.034;2023-03-11T15:05:40;11.05;;;3.33;;
53401;SDS011;39295;45.534;20.034;2023-03-11T15:13:37;5.57;;;2.10;;
53401;SDS011;39295;45.534;20.034;2023-03-11T15:16:04;10.02;;;2.00;;
53401;SDS011;39295;45.534;20.034;2023-03-11T15:18:34;9.77;;;2.10;;
53401;SDS011;39295;45.534;20.034;2023-03-11T15:21:14;10.13;;;1.55;;
53401;SDS011;39295;45.534;20.034;2023-03-11T15:29:29;5.63;;;1.55;;
53401;SDS011;39295;45.534;20.034;2023-03-11T15:31:55;5.25;;;1.00;;
53401;SDS011;39295;45.534;20.034;2023-03-11T15:34:24;4.13;;;1.25;;
53401;SDS011;39295;45.534;20.034;2023-03-11T15:42:22;10.57;;;2.30;;
53401;SDS011;39295;45.534;20.034;2023-03-11T15:44:57;9.15;;;2.22;;
53401;SDS011;39295;45.534;20.034;2023-03-11T15:47:25;4.32;;;1.52;;
53401;SDS011;39295;45.534;20.034;2023-03-11T15:49:51;6.90;;;2.50;;
53401;SDS011;39295;45.534;20.034;2023-03-11T15:52:17;7.43;;;1.98;;
53401;SDS011;39295;45.534;20.034;2023-03-11T15:54:46;7.53;;;2.13;;
53401;SDS011;39295;45.534;20.034;2023-03-11T15:57:16;6.45;;;2.10;;
53401;SDS011;39295;45.534;20.034;2023-03-11T15:59:45;6.70;;;1.45;;
53401;SDS011;39295;45.534;20.034;2023-03-11T16:02:19;8.48;;;2.25;;
53401;SDS011;39295;45.534;20.034;2023-03-11T16:05:01;6.82;;;1.75;;
53401;SDS011;39295;45.534;20.034;2023-03-11T16:07:27;5.90;;;2.60;;
53401;SDS011;39295;45.534;20.034;2023-03-11T16:09:53;21.88;;;8.57;;
53401;SDS011;39295;45.534;20.034;2023-03-11T16:12:22;44.30;;;13.60;;
53401;SDS011;39295;45.534;20.034;2023-03-11T16:14:48;31.48;;;11.52;;
53401;SDS011;39295;45.534;20.034;2023-03-11T16:17:14;24.85;;;7.38;;
53401;SDS011;39295;45.534;20.034;2023-03-11T16:19:45;15.57;;;6.35;;
53401;SDS011;39295;45.534;20.034;2023-03-11T16:22:18;27.35;;;9.73;;
53401;SDS011;39295;45.534;20.034;2023-03-11T16:27:49;45.90;;;13.98;;
53401;SDS011;39295;45.534;20.034;2023-03-11T16:30:16;35.45;;;12.98;;
53401;SDS011;39295;45.534;20.034;2023-03-11T16:32:42;25.23;;;8.75;;
53401;SDS011;39295;45.534;20.034;2023-03-11T16:35:08;28.60;;;10.32;;
53401;SDS011;39295;45.534;20.034;2023-03-11T16:37:36;14.18;;;5.32;;
53401;SDS011;39295;45.534;20.034;2023-03-11T16:40:03;16.55;;;6.43;;
53401;SDS011;39295;45.534;20.034;2023-03-11T16:42:31;17.02;;;7.03;;
53401;SDS011;39295;45.534;20.034;2023-03-11T16:44:57;18.90;;;7.53;;
53401;SDS011;39295;45.534;20.034;2023-03-11T16:47:23;15.05;;;5.07;;
53401;SDS011;39295;45.534;20.034;2023-03-11T16:49:50;14.15;;;4.88;;
53401;SDS011;39295;45.534;20.034;2023-03-11T16:52:18;16.40;;;6.10;;
53401;SDS011;39295;45.534;20.034;2023-03-11T16:55:03;8.23;;;2.85;;
53401;SDS011;39295;45.534;20.034;2023-03-11T16:57:29;12.45;;;4.13;;
53401;SDS011;39295;45.534;20.034;2023-03-11T16:59:55;17.75;;;5.57;;
53401;SDS011;39295;45.534;20.034;2023-03-11T17:02:22;14.43;;;5.53;;
53401;SDS011;39295;45.534;20.034;2023-03-11T17:04:48;14.93;;;5.95;;
53401;SDS011;39295;45.534;20.034;2023-03-11T17:07:14;11.95;;;4.13;;
53401;SDS011;39295;45.534;20.034;2023-03-11T17:09:40;9.23;;;3.53;;
53401;SDS011;39295;45.534;20.034;2023-03-11T17:12:06;17.48;;;6.20;;
53401;SDS011;39295;45.534;20.034;2023-03-11T17:14:34;11.15;;;3.63;;
53401;SDS011;39295;45.534;20.034;2023-03-11T17:17:00;14.18;;;4.95;;
53401;SDS011;39295;45.534;20.034;2023-03-11T17:19:26;12.40;;;4.60;;
53401;SDS011;39295;45.534;20.034;2023-03-11T17:21:52;10.48;;;4.60;;
53401;SDS011;39295;45.534;20.034;2023-03-11T17:24:18;8.48;;;3.40;;
53401;SDS011;39295;45.534;20.034;2023-03-11T17:26:45;7.63;;;2.60;;
53401;SDS011;39295;45.534;20.034;2023-03-11T17:29:11;10.30;;;3.80;;
53401;SDS011;39295;45.534;20.034;2023-03-11T17:31:37;9.07;;;2.85;;
53401;SDS011;39295;45.534;20.034;2023-03-11T17:34:03;8.23;;;3.17;;
53401;SDS011;39295;45.534;20.034;2023-03-11T17:36:29;7.45;;;3.10;;
53401;SDS011;39295;45.534;20.034;2023-03-11T17:38:55;8.77;;;3.92;;
53401;SDS011;39295;45.534;20.034;2023-03-11T17:41:21;23.75;;;12.20;;
53401;SDS011;39295;45.534;20.034;2023-03-11T17:43:47;18.95;;;9.88;;
53401;SDS011;39295;45.534;20.034;2023-03-11T17:46:14;16.60;;;7.22;;
53401;SDS011;39295;45.534;20.034;2023-03-11T17:48:45;13.25;;;7.43;;
53401;SDS011;39295;45.534;20.034;2023-03-11T17:51:15;22.95;;;16.88;;
53401;SDS011;39295;45.534;20.034;2023-03-11T17:53:42;41.53;;;16.23;;
53401;SDS011;39295;45.534;20.034;2023-03-11T17:56:09;15.18;;;9.10;;
53401;SDS011;39295;45.534;20.034;2023-03-11T17:58:35;13.02;;;6.82;;
53401;SDS011;39295;45.534;20.034;2023-03-11T18:01:03;9.35;;;3.53;;
53401;SDS011;39295;45.534;20.034;2023-03-11T18:03:29;6.93;;;3.88;;
53401;SDS011;39295;45.534;20.034;2023-03-11T18:05:59;12.10;;;4.15;;
53401;SDS011;39295;45.534;20.034;2023-03-11T18:08:26;13.85;;;5.30;;